Zenda, WI (53195)

6:05 PM CDT on September 18, 2014 (GMT -0500)
MesoWest IL-173 @ Piscasaw Creek Bridge IL US ILDOT | Change Station
CLOSE
Current Station
Personal Weather Station
Location: Hebron, IL
Elevation: 861 ft
Nearby Weather Stations

Elev 861 ft 42.46 °N, 88.47 °W | Updated 39 minutes ago

Partly Cloudy
Partly Cloudy
69 °F
Feels Like 69 °F
N
1
Wind Variable Wind from East
Gusts 7.0 mph

Today
High -- | Low -- °F
--% Chance of Precip.
Yesterday
High -- | Low -- °F
Precip. -- in
6:37 AM 6:58 PM
Waning Crescent, 24% visible
Pressure 30.14 in
Visibility 10.0 miles
Clouds Clear
Dew Point 54 °F
Humidity 60%
Rainfall -999.00 in
Snow Depth Not available.
UV 1 out of 12
Pollen 4.50 out of 12
Air Quality Not available.
Flu Activity Not available.
METAR KBUU 182255Z AUTO 09006KT 10SM CLR 14/11 A3014 RMK AO2 T01400106

More Conditions Fewer Conditions

Pressure 30.14 in
Visibility 10.0 miles
Clouds Clear
Dew Point 54 °F
Humidity 60%
Rainfall -999.00 in
Snow Depth Not available.
UV 1 out of 12
Pollen 4.50 out of 12
Air Quality Not available.
Flu Activity Not available.
METAR KBUU 182255Z AUTO 09006KT 10SM CLR 14/11 A3014 RMK AO2 T01400106

More Conditions Fewer Conditions

10-Day Weather Forecast

Almanac

Astronomy

Sep. 18, 2014 Rise Set
Actual Time 6:37 AM CDT 6:58 PM CDT
Civil Twilight 6:08 AM CDT 7:26 PM CDT
Nautical Twilight 5:35 AM CDT 7:59 PM CDT
Astronomical Twilight 5:01 AM CDT 8:33 PM CDT
Moon 1:23 AM CDT 3:53 PM CDT
Length of Visible Light 13h 17m
Length of Day
12h 21m
Tomorrow will be 2m 51s shorter.
Waning Crescent, 24% of the Moon is Illuminated
Today
Waning Crescent
Sep 24
New
Oct 1
First Quarter
Oct 8
Full
Oct 15
Last Quarter

Today's Extremes

State Highs State Lows

Community

WunderPhotos

Upload Photos

1,754,475 photos uploaded!

WunderBlogs® & News

Nearby

Snow Depth

Station Depth Elevation
No new snow has been reported.

Earthquake Activity

City Distance Mag. Time & Date
No recent earthquake activity has been reported nearby.
Minimum magnitude displayed is 2.5.

Coastal Water Temperatures

Place Temperature
No Stations Reporting

Nearby Weather Stations